createdAt,value
2023-03-05T00:01:09.589Z,96.20
2023-03-05T00:03:41.043Z,95.23
2023-03-05T00:06:11.428Z,94.83
2023-03-05T00:08:41.606Z,94.37
2023-03-05T00:11:12.630Z,95.92
2023-03-05T00:13:42.194Z,95.15
2023-03-05T00:16:13.344Z,94.82
2023-03-05T00:18:44.978Z,95.90
2023-03-05T00:21:27.390Z,93.34
2023-03-05T00:23:58.180Z,95.72
2023-03-05T00:26:28.899Z,95.28
2023-03-05T00:29:02.278Z,92.70
2023-03-05T00:31:35.336Z,93.71
2023-03-05T00:34:07.798Z,96.00
2023-03-05T00:36:42.060Z,97.50
2023-03-05T00:39:13.952Z,97.44
2023-03-05T00:41:44.140Z,96.53
2023-03-05T00:44:14.889Z,95.28
2023-03-05T00:46:47.413Z,93.83
2023-03-05T00:49:17.857Z,93.78
2023-03-05T00:51:47.252Z,96.15
2023-03-05T00:54:16.859Z,96.32
2023-03-05T00:56:47.129Z,95.30
2023-03-05T00:59:16.285Z,94.99
2023-03-05T01:01:45.719Z,94.32
2023-03-05T01:04:15.011Z,94.13
2023-03-05T01:06:46.602Z,97.19
2023-03-05T01:09:17.327Z,95.29
2023-03-05T01:11:47.690Z,93.07
2023-03-05T01:14:16.889Z,93.45
2023-03-05T01:16:47.035Z,94.71
2023-03-05T01:19:17.948Z,95.29
2023-03-05T01:21:47.541Z,94.39
2023-03-05T01:24:17.871Z,94.89
2023-03-05T01:26:48.292Z,94.94
2023-03-05T01:29:18.507Z,94.55
2023-03-05T01:31:49.497Z,94.61
2023-03-05T01:34:20.340Z,94.56
2023-03-05T01:36:53.112Z,94.30
2023-03-05T01:39:24.131Z,94.26
2023-03-05T01:41:54.338Z,93.93
2023-03-05T01:44:25.995Z,93.62
2023-03-05T01:46:56.433Z,93.40
2023-03-05T01:49:30.926Z,93.36
2023-03-05T01:52:14.670Z,92.95
2023-03-05T01:54:49.163Z,94.20
2023-03-05T01:57:24.446Z,92.51
2023-03-05T02:00:01.421Z,92.13
2023-03-05T02:02:31.436Z,91.72
2023-03-05T02:05:16.887Z,90.10
2023-03-05T02:07:47.691Z,90.39
2023-03-05T02:10:30.034Z,91.18
2023-03-05T02:13:03.246Z,92.18
2023-03-05T02:15:34.218Z,92.30
2023-03-05T02:18:05.295Z,91.93
2023-03-05T02:21:01.119Z,92.89
2023-03-05T02:23:38.073Z,94.44
2023-03-05T02:26:11.052Z,96.61
2023-03-05T02:29:01.717Z,98.04
2023-03-05T02:31:32.528Z,98.97
2023-03-05T02:34:05.167Z,97.98
2023-03-05T02:36:35.510Z,98.13
2023-03-05T02:39:05.883Z,98.65
2023-03-05T02:41:36.533Z,97.42
2023-03-05T02:44:09.310Z,96.40
2023-03-05T02:46:43.654Z,96.20
2023-03-05T02:49:15.168Z,96.40
2023-03-05T02:51:45.355Z,98.05
2023-03-05T02:54:16.838Z,98.88
2023-03-05T02:56:48.202Z,98.52
2023-03-05T02:59:18.704Z,98.13
2023-03-05T03:01:49.583Z,99.22
2023-03-05T03:04:20.585Z,99.00
2023-03-05T03:06:54.049Z,99.99
2023-03-05T03:09:25.110Z,100.00
2023-03-05T03:11:57.052Z,100.00
2023-03-05T03:14:28.820Z,100.00
2023-03-05T03:17:01.155Z,100.00
2023-03-05T03:19:32.136Z,100.00
2023-03-05T03:22:03.039Z,100.00
2023-03-05T03:24:36.046Z,100.00
2023-03-05T03:27:07.613Z,100.00
2023-03-05T03:29:40.004Z,100.00
2023-03-05T03:32:10.164Z,99.91
2023-03-05T03:34:40.243Z,99.63
2023-03-05T03:37:10.721Z,99.94
2023-03-05T03:39:41.110Z,99.83
2023-03-05T03:42:11.430Z,99.90
2023-03-05T03:44:42.602Z,100.00
2023-03-05T03:47:13.815Z,100.00
2023-03-05T03:49:43.571Z,100.00
2023-03-05T03:52:13.366Z,100.00
2023-03-05T03:54:44.512Z,100.00
2023-03-05T03:57:15.253Z,100.00
2023-03-05T03:59:46.547Z,100.00
2023-03-05T04:02:16.205Z,100.00
2023-03-05T04:04:46.171Z,100.00
2023-03-05T04:07:15.630Z,100.00
2023-03-05T04:09:45.793Z,100.00
2023-03-05T04:12:18.917Z,100.00
2023-03-05T04:14:49.193Z,100.00
2023-03-05T04:17:19.157Z,100.00
2023-03-05T04:19:49.302Z,100.00
2023-03-05T04:22:20.089Z,100.00
2023-03-05T04:24:53.808Z,100.00
2023-03-05T04:27:25.616Z,100.00
2023-03-05T04:29:56.855Z,100.00
2023-03-05T04:32:30.554Z,100.00
2023-03-05T04:35:01.362Z,100.00
2023-03-05T04:37:32.345Z,100.00
2023-03-05T04:40:02.637Z,100.00
2023-03-05T04:42:33.153Z,100.00
2023-03-05T04:45:03.046Z,100.00
2023-03-05T04:47:32.935Z,100.00
2023-03-05T04:50:03.982Z,100.00
2023-03-05T04:52:34.532Z,100.00
2023-03-05T04:55:04.113Z,100.00
2023-03-05T04:57:33.711Z,100.00
2023-03-05T05:00:07.770Z,100.00
2023-03-05T05:02:37.952Z,100.00
2023-03-05T05:05:08.208Z,100.00
2023-03-05T05:07:38.243Z,100.00
2023-03-05T05:10:09.953Z,100.00
2023-03-05T05:12:40.773Z,100.00
2023-03-05T05:15:12.068Z,100.00
2023-03-05T05:17:41.846Z,100.00
2023-03-05T05:20:13.797Z,100.00
2023-03-05T05:22:43.196Z,100.00
2023-03-05T05:25:12.252Z,100.00
2023-03-05T05:27:41.312Z,100.00
2023-03-05T05:30:11.307Z,100.00
2023-03-05T05:32:40.185Z,100.00
2023-03-05T05:35:10.681Z,100.00
2023-03-05T05:37:39.956Z,100.00
2023-03-05T05:40:10.250Z,100.00
2023-03-05T05:42:39.855Z,100.00
2023-03-05T05:45:10.063Z,100.00
2023-03-05T05:47:38.873Z,100.00
2023-03-05T05:50:08.235Z,100.00
2023-03-05T05:52:37.364Z,100.00
2023-03-05T05:55:07.099Z,100.00
2023-03-05T05:57:35.856Z,100.00
2023-03-05T06:00:07.552Z,100.00
2023-03-05T06:02:41.251Z,100.00
2023-03-05T06:05:14.201Z,100.00
2023-03-05T06:07:43.521Z,100.00
2023-03-05T06:10:13.069Z,100.00
2023-03-05T06:12:41.794Z,100.00
2023-03-05T06:15:11.009Z,100.00
2023-03-05T06:17:39.788Z,99.94
2023-03-05T06:20:09.596Z,99.72
2023-03-05T06:22:39.116Z,99.29
2023-03-05T06:25:09.621Z,98.58
2023-03-05T06:27:39.124Z,97.52
2023-03-05T06:30:08.731Z,96.44
2023-03-05T06:32:37.919Z,95.83
2023-03-05T06:35:07.028Z,95.31
2023-03-05T06:37:35.816Z,95.38
2023-03-05T06:40:05.840Z,93.52
2023-03-05T06:42:35.641Z,92.71
2023-03-05T06:45:04.945Z,92.58
2023-03-05T06:47:34.058Z,92.79
2023-03-05T06:50:02.736Z,93.03
2023-03-05T06:52:31.307Z,91.93
2023-03-05T06:55:00.220Z,91.52
2023-03-05T06:57:28.984Z,91.49
2023-03-05T06:59:57.638Z,90.84
2023-03-05T07:02:26.409Z,90.43
2023-03-05T07:04:55.038Z,90.44
2023-03-05T07:07:23.873Z,89.47
2023-03-05T07:09:54.048Z,89.10
2023-03-05T07:12:23.146Z,88.25
2023-03-05T07:14:52.455Z,88.29
2023-03-05T07:17:21.133Z,88.89
2023-03-05T07:19:49.934Z,89.21
2023-03-05T07:22:18.925Z,88.18
2023-03-05T07:24:47.605Z,86.27
2023-03-05T07:27:16.278Z,85.17
2023-03-05T07:29:45.071Z,84.07
2023-03-05T07:32:14.182Z,79.97
2023-03-05T07:34:42.749Z,81.84
2023-03-05T07:37:11.943Z,82.85
2023-03-05T07:39:40.656Z,76.08
2023-03-05T07:42:09.608Z,78.17
2023-03-05T07:44:49.983Z,74.05
2023-03-05T07:47:19.402Z,72.58
2023-03-05T07:49:47.971Z,71.11
2023-03-05T07:52:16.770Z,70.48
2023-03-05T07:54:45.441Z,69.67
2023-03-05T07:57:15.733Z,70.37
2023-03-05T07:59:44.250Z,68.49
2023-03-05T08:02:14.744Z,70.80
2023-03-05T08:04:43.702Z,67.60
2023-03-05T08:07:15.700Z,69.19
2023-03-05T08:09:44.656Z,68.57
2023-03-05T08:12:13.306Z,67.04
2023-03-05T08:14:43.418Z,65.96
2023-03-05T08:17:12.110Z,65.60
2023-03-05T08:19:40.695Z,66.80
2023-03-05T08:22:09.488Z,64.35
2023-03-05T08:24:38.176Z,65.60
2023-03-05T08:27:06.851Z,63.18
2023-03-05T08:29:35.744Z,63.89
2023-03-05T08:32:05.087Z,65.34
2023-03-05T08:34:35.162Z,64.88
2023-03-05T08:37:03.748Z,64.47
2023-03-05T08:39:32.642Z,64.32
2023-03-05T08:42:02.903Z,64.32
2023-03-05T08:44:31.644Z,63.68
2023-03-05T08:47:00.370Z,63.19
2023-03-05T08:49:29.115Z,63.45
2023-03-05T08:51:57.629Z,60.93
2023-03-05T08:54:26.516Z,61.49
2023-03-05T08:56:55.171Z,63.10
2023-03-05T08:59:23.975Z,61.71
2023-03-05T09:01:52.888Z,61.72
2023-03-05T09:04:21.550Z,60.34
2023-03-05T09:06:50.325Z,60.26
2023-03-05T09:09:22.296Z,60.59
2023-03-05T09:11:52.406Z,58.95
2023-03-05T09:14:21.309Z,57.43
2023-03-05T09:16:49.882Z,57.82
2023-03-05T09:19:18.668Z,59.08
2023-03-05T09:21:47.602Z,58.88
2023-03-05T09:24:16.661Z,58.68
2023-03-05T09:26:45.343Z,58.93
2023-03-05T09:29:13.922Z,59.13
2023-03-05T09:31:44.338Z,59.99
2023-03-05T09:34:13.236Z,60.11
2023-03-05T09:36:41.926Z,59.64
2023-03-05T09:39:11.121Z,59.07
2023-03-05T09:42:06.020Z,59.58
2023-03-05T09:44:52.828Z,59.62
2023-03-05T09:47:47.525Z,59.89
2023-03-05T09:50:32.086Z,59.96
2023-03-05T09:53:45.152Z,60.01
2023-03-05T09:56:21.578Z,59.77
2023-03-05T09:58:56.279Z,59.81
2023-03-05T10:01:32.309Z,58.23
2023-03-05T10:04:11.792Z,57.92
2023-03-05T10:07:08.932Z,57.05
2023-03-05T10:09:52.395Z,55.32
2023-03-05T10:12:33.576Z,54.08
2023-03-05T10:15:03.542Z,52.43
2023-03-05T10:17:41.175Z,50.39
2023-03-05T10:21:06.998Z,47.53
2023-03-05T10:23:54.118Z,45.36
2023-03-05T10:26:23.315Z,45.12
2023-03-05T10:29:19.244Z,44.68
2023-03-05T10:32:00.289Z,42.99
2023-03-05T10:35:13.955Z,41.83
2023-03-05T10:38:07.010Z,39.51
2023-03-05T10:40:46.037Z,37.36
2023-03-05T10:43:21.383Z,37.46
2023-03-05T10:45:53.260Z,36.77
2023-03-05T10:48:28.387Z,35.81
2023-03-05T10:51:03.208Z,35.73
2023-03-05T10:53:58.016Z,38.02
2023-03-05T10:56:29.532Z,37.76
2023-03-05T10:58:58.151Z,38.20
2023-03-05T11:01:29.190Z,37.39
2023-03-05T11:04:04.002Z,37.58
2023-03-05T11:06:43.551Z,35.65
2023-03-05T11:09:29.465Z,35.51
2023-03-05T11:12:17.165Z,33.65
2023-03-05T11:14:47.180Z,33.01
2023-03-05T11:17:28.201Z,32.02
2023-03-05T11:19:59.039Z,32.03
2023-03-05T11:22:27.586Z,30.08
2023-03-05T11:25:05.708Z,29.28
2023-03-05T11:27:40.611Z,28.30
2023-03-05T11:30:25.688Z,29.67
2023-03-05T11:33:22.942Z,27.76
2023-03-05T11:36:09.648Z,31.48
2023-03-05T11:38:55.135Z,32.18
2023-03-05T11:41:30.227Z,33.36
2023-03-05T11:44:04.071Z,33.13
2023-03-05T11:46:41.382Z,34.01
2023-03-05T11:49:15.790Z,35.09
2023-03-05T11:51:51.324Z,36.52
2023-03-05T11:54:32.023Z,37.29
2023-03-05T11:57:02.934Z,38.25
2023-03-05T11:59:39.981Z,38.10
2023-03-05T12:02:23.534Z,38.80
2023-03-05T12:04:53.261Z,38.78
2023-03-05T12:07:34.643Z,40.17
2023-03-05T12:10:04.784Z,39.53
2023-03-05T12:12:57.308Z,38.76
2023-03-05T12:15:39.616Z,39.83
2023-03-05T12:18:31.541Z,40.42
2023-03-05T12:21:29.101Z,40.69
2023-03-05T12:24:01.743Z,39.76
2023-03-05T12:27:04.542Z,40.13
2023-03-05T12:29:33.403Z,39.09
2023-03-05T12:32:03.217Z,38.34
2023-03-05T12:34:41.909Z,36.93
2023-03-05T12:37:22.560Z,35.41
2023-03-05T12:39:57.722Z,35.73
2023-03-05T12:42:29.168Z,36.05
2023-03-05T12:45:09.919Z,36.25
2023-03-05T12:47:49.676Z,36.94
2023-03-05T12:50:27.145Z,37.05
2023-03-05T12:52:56.859Z,38.03
2023-03-05T12:55:40.305Z,37.89
2023-03-05T12:58:21.162Z,37.96
2023-03-05T13:01:11.027Z,39.56
2023-03-05T13:03:43.660Z,40.04
2023-03-05T13:06:41.696Z,39.74
2023-03-05T13:09:18.314Z,39.62
2023-03-05T13:11:52.669Z,37.60
2023-03-05T13:14:35.390Z,35.63
2023-03-05T13:17:26.581Z,34.07
2023-03-05T13:19:56.315Z,32.51
2023-03-05T13:22:24.999Z,32.41
2023-03-05T13:25:13.873Z,32.06
2023-03-05T13:27:43.581Z,31.66
2023-03-05T13:30:26.585Z,31.53
2023-03-05T13:33:03.871Z,31.91
2023-03-05T13:35:33.752Z,31.70
2023-03-05T13:38:02.502Z,32.36
2023-03-05T13:40:33.023Z,33.43
2023-03-05T13:43:20.884Z,32.58
2023-03-05T13:45:56.766Z,32.55
2023-03-05T13:48:28.086Z,33.16
2023-03-05T13:50:59.092Z,33.64
2023-03-05T13:53:30.432Z,34.62
2023-03-05T13:56:05.936Z,34.42
2023-03-05T13:58:49.633Z,35.02
2023-03-05T14:01:21.211Z,36.39
2023-03-05T14:03:51.893Z,38.68
2023-03-05T14:06:23.586Z,38.54
2023-03-05T14:08:54.574Z,38.64
2023-03-05T14:11:23.487Z,38.46
2023-03-05T14:14:05.786Z,38.93
2023-03-05T14:16:34.810Z,39.54
2023-03-05T14:19:07.439Z,39.43
2023-03-05T14:21:50.748Z,39.34
2023-03-05T14:24:25.736Z,40.24
2023-03-05T14:27:09.049Z,40.21
2023-03-05T14:29:38.147Z,40.83
2023-03-05T14:32:16.933Z,41.20
2023-03-05T14:34:55.483Z,41.93
2023-03-05T14:37:30.012Z,43.28
2023-03-05T14:40:06.576Z,43.43
2023-03-05T14:42:59.124Z,42.90
2023-03-05T14:45:37.583Z,44.29
2023-03-05T14:48:08.503Z,44.44
2023-03-05T14:50:56.326Z,45.02
2023-03-05T14:53:36.989Z,44.64
2023-03-05T14:56:07.387Z,44.91
2023-03-05T14:58:36.140Z,45.63
2023-03-05T15:01:05.367Z,45.31
2023-03-05T15:03:33.972Z,45.22
2023-03-05T15:06:02.575Z,46.00
2023-03-05T15:08:32.630Z,46.12
2023-03-05T15:11:01.365Z,46.63
2023-03-05T15:13:30.252Z,46.27
2023-03-05T15:15:59.675Z,46.45
2023-03-05T15:18:28.543Z,45.92
2023-03-05T15:20:57.843Z,45.51
2023-03-05T15:23:26.728Z,46.23
2023-03-05T15:25:55.323Z,46.30
2023-03-05T15:28:24.100Z,45.86
2023-03-05T15:30:52.689Z,46.22
2023-03-05T15:33:23.314Z,46.51
2023-03-05T15:35:51.952Z,46.94
2023-03-05T15:38:20.894Z,46.77
2023-03-05T15:40:50.394Z,47.26
2023-03-05T15:43:19.492Z,47.65
2023-03-05T15:45:48.688Z,47.88
2023-03-05T15:48:17.483Z,47.92
2023-03-05T15:50:47.081Z,48.51
2023-03-05T15:53:16.701Z,49.03
2023-03-05T15:55:46.508Z,47.79
2023-03-05T15:58:18.469Z,48.34
2023-03-05T16:00:47.863Z,49.59
2023-03-05T16:03:16.475Z,48.49
2023-03-05T16:05:45.241Z,48.58
2023-03-05T16:08:14.028Z,48.42
2023-03-05T16:10:43.030Z,48.78
2023-03-05T16:13:16.280Z,48.46
2023-03-05T16:15:45.364Z,48.47
2023-03-05T16:18:17.090Z,48.66
2023-03-05T16:20:46.181Z,48.58
2023-03-05T16:23:14.850Z,48.53
2023-03-05T16:25:43.538Z,48.67
2023-03-05T16:28:12.322Z,48.85
2023-03-05T16:30:41.534Z,48.80
2023-03-05T16:33:10.422Z,48.74
2023-03-05T16:35:38.990Z,48.92
2023-03-05T16:38:08.813Z,49.12
2023-03-05T16:41:06.287Z,49.95
2023-03-05T16:43:29.628Z,50.78
2023-03-05T16:45:58.415Z,50.10
2023-03-05T16:48:30.474Z,49.65
2023-03-05T16:51:00.328Z,49.74
2023-03-05T16:53:28.876Z,50.50
2023-03-05T16:55:57.558Z,50.74
2023-03-05T16:58:27.073Z,51.97
2023-03-05T17:00:55.792Z,53.46
2023-03-05T17:03:28.635Z,57.06
2023-03-05T17:05:57.234Z,59.14
2023-03-05T17:08:30.671Z,59.18
2023-03-05T17:10:59.190Z,59.46
2023-03-05T17:13:27.776Z,60.41
2023-03-05T17:15:57.761Z,60.89
2023-03-05T17:18:26.783Z,61.72
2023-03-05T17:20:55.372Z,61.88
2023-03-05T17:23:24.875Z,61.13
2023-03-05T17:25:53.457Z,60.01
2023-03-05T17:28:22.146Z,58.77
2023-03-05T17:30:51.543Z,58.11
2023-03-05T17:33:21.278Z,57.77
2023-03-05T17:35:50.252Z,57.45
2023-03-05T17:38:19.032Z,57.46
2023-03-05T17:40:48.232Z,57.28
2023-03-05T17:43:17.022Z,58.37
2023-03-05T17:45:47.495Z,58.02
2023-03-05T17:48:16.447Z,58.51
2023-03-05T17:50:45.539Z,59.09
2023-03-05T17:53:14.320Z,58.84
2023-03-05T17:55:43.216Z,58.49
2023-03-05T17:58:12.210Z,58.97
2023-03-05T18:00:40.991Z,58.80
2023-03-05T18:03:09.678Z,58.96
2023-03-05T18:05:38.774Z,58.69
2023-03-05T18:08:07.799Z,58.83
2023-03-05T18:10:36.659Z,58.42
2023-03-05T18:13:05.722Z,58.01
2023-03-05T18:15:34.335Z,58.00
2023-03-05T18:18:03.329Z,58.38
2023-03-05T18:20:37.285Z,58.47
2023-03-05T18:23:06.211Z,57.62
2023-03-05T18:25:35.230Z,58.67
2023-03-05T18:28:12.407Z,58.30
2023-03-05T18:30:42.447Z,58.02
2023-03-05T18:33:22.063Z,57.87
2023-03-05T18:35:55.186Z,57.50
2023-03-05T18:38:26.648Z,58.02
2023-03-05T18:40:56.721Z,58.01
2023-03-05T18:43:25.507Z,57.69
2023-03-05T18:45:56.305Z,57.36
2023-03-05T18:48:25.134Z,57.80
2023-03-05T18:50:54.740Z,57.77
2023-03-05T18:53:23.838Z,57.78
2023-03-05T18:55:53.655Z,57.71
2023-03-05T18:58:23.009Z,57.56
2023-03-05T19:00:52.348Z,57.40
2023-03-05T19:03:22.877Z,57.42
2023-03-05T19:05:52.385Z,57.75
2023-03-05T19:08:21.169Z,57.52
2023-03-05T19:10:52.415Z,57.35
2023-03-05T19:13:40.112Z,57.76
2023-03-05T19:16:13.702Z,58.34
2023-03-05T19:19:18.380Z,58.20
2023-03-05T19:21:49.850Z,57.95
2023-03-05T19:24:18.518Z,58.47
2023-03-05T19:26:48.328Z,58.26
2023-03-05T19:29:16.810Z,58.29
2023-03-05T19:31:45.393Z,58.20
2023-03-05T19:34:16.134Z,58.30
2023-03-05T19:36:45.017Z,58.37
2023-03-05T19:39:14.110Z,58.54
2023-03-05T19:41:42.996Z,58.54
2023-03-05T19:44:13.118Z,58.47
2023-03-05T19:46:44.587Z,58.91
2023-03-05T19:49:17.381Z,58.40
2023-03-05T19:51:46.757Z,58.19
2023-03-05T19:54:17.586Z,58.13
2023-03-05T19:56:47.561Z,58.30
2023-03-05T19:59:21.231Z,58.22
2023-03-05T20:01:49.828Z,58.60
2023-03-05T20:04:22.063Z,59.05
2023-03-05T20:06:50.940Z,59.02
2023-03-05T20:09:19.838Z,58.53
2023-03-05T20:11:50.176Z,57.96
2023-03-05T20:14:19.254Z,58.69
2023-03-05T20:16:47.850Z,58.12
2023-03-05T20:19:18.704Z,58.11
2023-03-05T20:21:47.265Z,57.92
2023-03-05T20:24:18.073Z,57.74
2023-03-05T20:26:48.020Z,58.18
2023-03-05T20:29:18.742Z,58.43
2023-03-05T20:31:50.142Z,58.44
2023-03-05T20:34:20.003Z,58.50
2023-03-05T20:36:49.524Z,58.80
2023-03-05T20:39:18.197Z,58.62
2023-03-05T20:41:47.219Z,58.74
2023-03-05T20:44:16.808Z,58.67
2023-03-05T20:47:24.815Z,58.34
2023-03-05T20:50:05.994Z,58.37
2023-03-05T20:52:34.886Z,58.25
2023-03-05T20:55:05.273Z,58.50
2023-03-05T20:57:34.092Z,58.48
2023-03-05T21:00:04.320Z,58.36
2023-03-05T21:02:33.203Z,58.70
2023-03-05T21:05:02.407Z,58.79
2023-03-05T21:07:31.700Z,58.66
2023-03-05T21:10:00.498Z,58.68
2023-03-05T21:12:29.379Z,58.32
2023-03-05T21:14:58.679Z,58.68
2023-03-05T21:17:27.468Z,60.16
2023-03-05T21:19:56.255Z,59.74
2023-03-05T21:22:24.739Z,59.37
2023-03-05T21:25:21.274Z,59.76
2023-03-05T21:27:58.462Z,59.45
2023-03-05T21:30:35.549Z,60.78
2023-03-05T21:33:09.244Z,59.80
2023-03-05T21:35:38.551Z,58.32
2023-03-05T21:38:08.668Z,58.47
2023-03-05T21:40:44.415Z,59.18
2023-03-05T21:43:14.126Z,59.48
2023-03-05T21:45:43.304Z,59.07
2023-03-05T21:48:12.216Z,58.78
2023-03-05T21:50:43.340Z,58.06
2023-03-05T21:53:13.161Z,57.39
2023-03-05T21:56:03.361Z,57.00
2023-03-05T21:58:37.382Z,57.29
2023-03-05T22:01:06.485Z,57.38
2023-03-05T22:03:35.371Z,57.31
2023-03-05T22:06:04.800Z,57.42
2023-03-05T22:08:34.911Z,57.33
2023-03-05T22:11:10.059Z,57.59
2023-03-05T22:13:39.746Z,57.44
2023-03-05T22:16:09.662Z,57.25
2023-03-05T22:18:38.318Z,57.46
2023-03-05T22:21:18.519Z,57.96
2023-03-05T22:23:48.087Z,57.97
2023-03-05T22:26:16.874Z,58.10
2023-03-05T22:28:46.976Z,58.15
2023-03-05T22:31:27.134Z,58.05
2023-03-05T22:33:55.869Z,58.08
2023-03-05T22:36:25.324Z,58.61
2023-03-05T22:38:54.012Z,58.40
2023-03-05T22:41:23.210Z,58.92
2023-03-05T22:43:52.013Z,59.50
2023-03-05T22:46:23.630Z,59.33
2023-03-05T22:48:53.409Z,59.36
2023-03-05T22:51:22.671Z,59.97
2023-03-05T22:53:52.108Z,61.06
2023-03-05T22:56:22.189Z,61.34
2023-03-05T22:58:51.593Z,62.24
2023-03-05T23:01:27.515Z,61.86
2023-03-05T23:04:48.566Z,62.15
2023-03-05T23:07:20.803Z,62.48
2023-03-05T23:09:58.438Z,62.58
2023-03-05T23:12:30.725Z,62.89
2023-03-05T23:15:01.326Z,63.35
2023-03-05T23:17:30.896Z,64.00
2023-03-05T23:20:00.587Z,64.00
2023-03-05T23:22:29.845Z,63.64
2023-03-05T23:24:58.937Z,64.18
2023-03-05T23:27:28.035Z,64.10
2023-03-05T23:30:19.848Z,64.21
2023-03-05T23:32:54.593Z,65.33
2023-03-05T23:35:26.668Z,66.03
2023-03-05T23:37:57.535Z,65.47
2023-03-05T23:40:39.797Z,66.02
2023-03-05T23:43:10.280Z,66.28
2023-03-05T23:45:42.459Z,66.78
2023-03-05T23:48:12.709Z,65.98
2023-03-05T23:50:45.435Z,65.88
2023-03-05T23:53:21.252Z,66.57
2023-03-05T23:55:51.340Z,66.40
2023-03-05T23:58:20.986Z,66.50
